Portada
METAR-TAF:

METAR-TAF

Aeroports :

Yap, Micronèsia

latitud: 09-29N, longitud: 138-05E, altitud: 28 m

Observació

L'informe es va fer fa 59 minuts, a les 21:53 UTC
Vent 7 kt del Sud-Est
Temperatura 28°C
Humitat 84%
Pressió 1009 hPa
Visibilitat: 19.3 km
Escasses núvols a una alçada de 1600 ft
Núvols disperses a una alçada de 13000 ft
Núvols disperses a una alçada de 30000 ft

METAR: PTYA 042153Z 14007KT 12SM FEW016 SCT130 SCT300 28/25 A2979 RMK SLP090 T02790253

Hora: 08:52 (22:52 UTC)

Pronòstic

L'informe es va fer fa 5 hores i 20 minuts, a les 17:32 UTC
Pronòstic vàlid del 04 a les 18 UTC al 05 a les 18 UTC
Vent 7 kt del Est/Nord-Est
Visibilitat: 10 km
Núvols disperses a una alçada de 1600 ft
Cel ennuvolat a una alçada de 12000 ft
xàfecs en les proximitats

TAF: PTYA 041732Z 0418/0518 07007KT P6SM VCSH SCT016 BKN120

Observacions i pronòstics meteorològics de més de 4000 aeroports (METAR i TAF).

Les estacions disponibles són els punts grocs i vermells al mapa.

Posi el ratolí al punt desitjat per veure el nom de l'estació.

Feu clic per veure les observacions i els pronòstics meteorològics.

Per canviar el mapa: feu clic els botons verds amb una creu de color negre per apropar; al botó verd amb un guió per allunyar la imatge; o en les fletxes verdes per a mapes adjacents.


METAR-TAF: